sensor_id;sensor_type;location;lat;lon;timestamp;P1;durP1;ratioP1;P2;durP2;ratioP2
3708;SDS011;1870;53.996;10.784;2023-09-30T00:00:58;28.47;;;25.83;;
3708;SDS011;1870;53.996;10.784;2023-09-30T00:03:24;27.13;;;25.10;;
3708;SDS011;1870;53.996;10.784;2023-09-30T00:05:50;27.03;;;24.90;;
3708;SDS011;1870;53.996;10.784;2023-09-30T00:08:15;27.67;;;25.40;;
3708;SDS011;1870;53.996;10.784;2023-09-30T00:10:41;30.37;;;27.17;;
3708;SDS011;1870;53.996;10.784;2023-09-30T00:13:07;28.80;;;26.77;;
3708;SDS011;1870;53.996;10.784;2023-09-30T00:15:33;29.83;;;27.67;;
3708;SDS011;1870;53.996;10.784;2023-09-30T00:17:58;31.83;;;28.37;;
3708;SDS011;1870;53.996;10.784;2023-09-30T00:20:24;32.00;;;29.63;;
3708;SDS011;1870;53.996;10.784;2023-09-30T00:22:50;29.63;;;27.53;;
3708;SDS011;1870;53.996;10.784;2023-09-30T00:25:16;35.13;;;31.50;;
3708;SDS011;1870;53.996;10.784;2023-09-30T00:27:41;33.23;;;28.97;;
3708;SDS011;1870;53.996;10.784;2023-09-30T00:30:07;34.33;;;29.67;;
3708;SDS011;1870;53.996;10.784;2023-09-30T00:32:34;31.20;;;28.40;;
3708;SDS011;1870;53.996;10.784;2023-09-30T00:35:03;31.60;;;28.80;;
3708;SDS011;1870;53.996;10.784;2023-09-30T00:37:29;31.13;;;28.33;;
3708;SDS011;1870;53.996;10.784;2023-09-30T00:39:54;28.53;;;26.53;;
3708;SDS011;1870;53.996;10.784;2023-09-30T00:42:20;32.00;;;29.20;;
3708;SDS011;1870;53.996;10.784;2023-09-30T00:44:46;29.17;;;27.03;;
3708;SDS011;1870;53.996;10.784;2023-09-30T00:47:13;29.40;;;27.20;;
3708;SDS011;1870;53.996;10.784;2023-09-30T00:49:40;30.23;;;27.80;;
3708;SDS011;1870;53.996;10.784;2023-09-30T00:52:08;27.50;;;24.97;;
3708;SDS011;1870;53.996;10.784;2023-09-30T00:54:35;29.30;;;26.90;;
3708;SDS011;1870;53.996;10.784;2023-09-30T00:57:02;31.33;;;26.60;;
3708;SDS011;1870;53.996;10.784;2023-09-30T00:59:29;26.43;;;24.30;;
3708;SDS011;1870;53.996;10.784;2023-09-30T01:01:57;26.60;;;24.30;;
3708;SDS011;1870;53.996;10.784;2023-09-30T01:04:26;26.57;;;24.47;;
3708;SDS011;1870;53.996;10.784;2023-09-30T01:06:52;24.20;;;21.90;;
3708;SDS011;1870;53.996;10.784;2023-09-30T01:09:18;25.63;;;23.10;;
3708;SDS011;1870;53.996;10.784;2023-09-30T01:11:45;23.70;;;21.70;;
3708;SDS011;1870;53.996;10.784;2023-09-30T01:16:56;22.40;;;20.20;;
3708;SDS011;1870;53.996;10.784;2023-09-30T01:19:23;23.70;;;21.90;;
3708;SDS011;1870;53.996;10.784;2023-09-30T01:21:56;28.70;;;22.80;;
3708;SDS011;1870;53.996;10.784;2023-09-30T01:24:24;24.07;;;20.37;;
3708;SDS011;1870;53.996;10.784;2023-09-30T01:26:51;27.37;;;23.90;;
3708;SDS011;1870;53.996;10.784;2023-09-30T01:29:17;24.70;;;22.17;;
3708;SDS011;1870;53.996;10.784;2023-09-30T01:31:43;26.80;;;24.73;;
3708;SDS011;1870;53.996;10.784;2023-09-30T01:34:12;28.63;;;25.70;;
3708;SDS011;1870;53.996;10.784;2023-09-30T01:36:40;26.77;;;24.87;;
3708;SDS011;1870;53.996;10.784;2023-09-30T01:39:06;27.13;;;25.17;;
3708;SDS011;1870;53.996;10.784;2023-09-30T01:41:32;29.27;;;26.67;;
3708;SDS011;1870;53.996;10.784;2023-09-30T01:43:58;36.03;;;31.53;;
3708;SDS011;1870;53.996;10.784;2023-09-30T01:46:23;33.67;;;31.47;;
3708;SDS011;1870;53.996;10.784;2023-09-30T01:48:49;36.60;;;33.70;;
3708;SDS011;1870;53.996;10.784;2023-09-30T01:51:15;35.30;;;33.10;;
3708;SDS011;1870;53.996;10.784;2023-09-30T01:53:40;36.77;;;34.20;;
3708;SDS011;1870;53.996;10.784;2023-09-30T01:56:07;38.27;;;35.70;;
3708;SDS011;1870;53.996;10.784;2023-09-30T01:58:32;41.87;;;39.47;;
3708;SDS011;1870;53.996;10.784;2023-09-30T02:01:02;43.70;;;40.10;;
3708;SDS011;1870;53.996;10.784;2023-09-30T02:03:28;42.83;;;40.07;;
3708;SDS011;1870;53.996;10.784;2023-09-30T02:05:54;42.17;;;39.63;;
3708;SDS011;1870;53.996;10.784;2023-09-30T02:08:20;42.93;;;40.63;;
3708;SDS011;1870;53.996;10.784;2023-09-30T02:10:47;44.90;;;42.17;;
3708;SDS011;1870;53.996;10.784;2023-09-30T02:13:13;46.73;;;43.60;;
3708;SDS011;1870;53.996;10.784;2023-09-30T02:15:42;46.07;;;43.63;;
3708;SDS011;1870;53.996;10.784;2023-09-30T02:18:08;46.97;;;42.87;;
3708;SDS011;1870;53.996;10.784;2023-09-30T02:20:34;48.30;;;45.23;;
3708;SDS011;1870;53.996;10.784;2023-09-30T02:23:04;47.90;;;44.90;;
3708;SDS011;1870;53.996;10.784;2023-09-30T02:25:31;49.13;;;45.70;;
3708;SDS011;1870;53.996;10.784;2023-09-30T02:27:57;48.93;;;45.77;;
3708;SDS011;1870;53.996;10.784;2023-09-30T02:30:22;50.80;;;47.90;;
3708;SDS011;1870;53.996;10.784;2023-09-30T02:32:49;49.07;;;45.83;;
3708;SDS011;1870;53.996;10.784;2023-09-30T02:35:14;50.33;;;47.50;;
3708;SDS011;1870;53.996;10.784;2023-09-30T02:37:40;46.80;;;43.90;;
3708;SDS011;1870;53.996;10.784;2023-09-30T02:40:06;49.60;;;46.53;;
3708;SDS011;1870;53.996;10.784;2023-09-30T02:42:34;50.37;;;46.77;;
3708;SDS011;1870;53.996;10.784;2023-09-30T02:45:02;48.53;;;44.83;;
3708;SDS011;1870;53.996;10.784;2023-09-30T02:47:28;48.57;;;45.40;;
3708;SDS011;1870;53.996;10.784;2023-09-30T02:49:55;49.43;;;46.07;;
3708;SDS011;1870;53.996;10.784;2023-09-30T02:52:22;49.47;;;46.53;;
3708;SDS011;1870;53.996;10.784;2023-09-30T02:54:47;52.40;;;48.87;;
3708;SDS011;1870;53.996;10.784;2023-09-30T02:57:14;50.97;;;48.07;;
3708;SDS011;1870;53.996;10.784;2023-09-30T02:59:40;53.13;;;49.33;;
3708;SDS011;1870;53.996;10.784;2023-09-30T03:02:06;54.80;;;49.23;;
3708;SDS011;1870;53.996;10.784;2023-09-30T03:04:32;54.10;;;50.17;;
3708;SDS011;1870;53.996;10.784;2023-09-30T03:06:57;51.13;;;47.73;;
3708;SDS011;1870;53.996;10.784;2023-09-30T03:09:23;49.60;;;46.60;;
3708;SDS011;1870;53.996;10.784;2023-09-30T03:11:49;48.57;;;46.00;;
3708;SDS011;1870;53.996;10.784;2023-09-30T03:14:15;49.83;;;46.60;;
3708;SDS011;1870;53.996;10.784;2023-09-30T03:16:40;51.97;;;48.43;;
3708;SDS011;1870;53.996;10.784;2023-09-30T03:19:07;50.10;;;46.80;;
3708;SDS011;1870;53.996;10.784;2023-09-30T03:21:36;48.17;;;44.97;;
3708;SDS011;1870;53.996;10.784;2023-09-30T03:24:03;50.80;;;47.57;;
3708;SDS011;1870;53.996;10.784;2023-09-30T03:26:29;52.73;;;49.20;;
3708;SDS011;1870;53.996;10.784;2023-09-30T03:28:55;50.60;;;47.50;;
3708;SDS011;1870;53.996;10.784;2023-09-30T03:31:21;53.27;;;50.10;;
3708;SDS011;1870;53.996;10.784;2023-09-30T03:33:48;51.63;;;47.97;;
3708;SDS011;1870;53.996;10.784;2023-09-30T03:36:16;52.40;;;49.67;;
3708;SDS011;1870;53.996;10.784;2023-09-30T03:38:43;54.10;;;50.90;;
3708;SDS011;1870;53.996;10.784;2023-09-30T03:41:09;55.53;;;51.13;;
3708;SDS011;1870;53.996;10.784;2023-09-30T03:43:38;52.03;;;49.10;;
3708;SDS011;1870;53.996;10.784;2023-09-30T03:46:09;51.63;;;49.00;;
3708;SDS011;1870;53.996;10.784;2023-09-30T03:48:37;56.33;;;52.87;;
3708;SDS011;1870;53.996;10.784;2023-09-30T03:51:13;55.73;;;52.40;;
3708;SDS011;1870;53.996;10.784;2023-09-30T03:53:46;56.30;;;53.00;;
3708;SDS011;1870;53.996;10.784;2023-09-30T03:56:11;54.93;;;51.63;;
3708;SDS011;1870;53.996;10.784;2023-09-30T03:58:38;56.47;;;53.53;;
3708;SDS011;1870;53.996;10.784;2023-09-30T04:01:06;57.07;;;53.90;;
3708;SDS011;1870;53.996;10.784;2023-09-30T04:03:32;59.17;;;55.80;;
3708;SDS011;1870;53.996;10.784;2023-09-30T04:05:58;58.67;;;55.53;;
3708;SDS011;1870;53.996;10.784;2023-09-30T04:08:24;56.03;;;52.60;;
3708;SDS011;1870;53.996;10.784;2023-09-30T04:10:50;60.00;;;56.70;;
3708;SDS011;1870;53.996;10.784;2023-09-30T04:13:15;61.73;;;58.23;;
3708;SDS011;1870;53.996;10.784;2023-09-30T04:15:42;59.47;;;55.90;;
3708;SDS011;1870;53.996;10.784;2023-09-30T04:18:09;62.50;;;59.40;;
3708;SDS011;1870;53.996;10.784;2023-09-30T04:20:36;66.83;;;62.70;;
3708;SDS011;1870;53.996;10.784;2023-09-30T04:23:04;65.03;;;61.20;;
3708;SDS011;1870;53.996;10.784;2023-09-30T04:25:35;63.43;;;60.03;;
3708;SDS011;1870;53.996;10.784;2023-09-30T04:28:01;66.00;;;61.20;;
3708;SDS011;1870;53.996;10.784;2023-09-30T04:30:27;64.57;;;60.87;;
3708;SDS011;1870;53.996;10.784;2023-09-30T04:32:54;63.87;;;60.03;;
3708;SDS011;1870;53.996;10.784;2023-09-30T04:35:21;62.00;;;58.40;;
3708;SDS011;1870;53.996;10.784;2023-09-30T04:37:47;65.80;;;62.57;;
3708;SDS011;1870;53.996;10.784;2023-09-30T04:40:13;67.27;;;63.27;;
3708;SDS011;1870;53.996;10.784;2023-09-30T04:42:47;64.80;;;61.53;;
3708;SDS011;1870;53.996;10.784;2023-09-30T04:45:14;64.03;;;60.70;;
3708;SDS011;1870;53.996;10.784;2023-09-30T04:47:49;65.43;;;62.37;;
3708;SDS011;1870;53.996;10.784;2023-09-30T04:50:15;65.70;;;61.80;;
3708;SDS011;1870;53.996;10.784;2023-09-30T04:52:41;66.93;;;63.63;;
3708;SDS011;1870;53.996;10.784;2023-09-30T04:55:07;66.23;;;62.67;;
3708;SDS011;1870;53.996;10.784;2023-09-30T04:57:34;71.70;;;65.97;;
3708;SDS011;1870;53.996;10.784;2023-09-30T05:00:00;70.57;;;66.10;;
3708;SDS011;1870;53.996;10.784;2023-09-30T05:02:26;72.37;;;68.60;;
3708;SDS011;1870;53.996;10.784;2023-09-30T05:04:52;69.13;;;65.60;;
3708;SDS011;1870;53.996;10.784;2023-09-30T05:07:21;72.10;;;67.60;;
3708;SDS011;1870;53.996;10.784;2023-09-30T05:09:47;70.47;;;66.77;;
3708;SDS011;1870;53.996;10.784;2023-09-30T05:12:15;76.37;;;72.23;;
3708;SDS011;1870;53.996;10.784;2023-09-30T05:14:41;73.73;;;69.13;;
3708;SDS011;1870;53.996;10.784;2023-09-30T05:17:08;75.07;;;71.47;;
3708;SDS011;1870;53.996;10.784;2023-09-30T05:19:34;78.53;;;74.57;;
3708;SDS011;1870;53.996;10.784;2023-09-30T05:22:01;74.67;;;70.43;;
3708;SDS011;1870;53.996;10.784;2023-09-30T05:24:28;77.13;;;73.13;;
3708;SDS011;1870;53.996;10.784;2023-09-30T05:26:54;79.37;;;73.80;;
3708;SDS011;1870;53.996;10.784;2023-09-30T05:29:20;73.87;;;69.33;;
3708;SDS011;1870;53.996;10.784;2023-09-30T05:31:45;70.03;;;66.40;;
3708;SDS011;1870;53.996;10.784;2023-09-30T05:34:12;73.10;;;68.90;;
3708;SDS011;1870;53.996;10.784;2023-09-30T05:36:37;70.40;;;65.63;;
3708;SDS011;1870;53.996;10.784;2023-09-30T05:39:03;65.40;;;62.40;;
3708;SDS011;1870;53.996;10.784;2023-09-30T05:41:30;67.37;;;63.60;;
3708;SDS011;1870;53.996;10.784;2023-09-30T05:43:56;63.80;;;60.73;;
3708;SDS011;1870;53.996;10.784;2023-09-30T05:46:22;64.53;;;60.97;;
3708;SDS011;1870;53.996;10.784;2023-09-30T05:48:48;63.27;;;59.67;;
3708;SDS011;1870;53.996;10.784;2023-09-30T05:51:13;63.10;;;59.87;;
3708;SDS011;1870;53.996;10.784;2023-09-30T05:53:40;68.67;;;64.57;;
3708;SDS011;1870;53.996;10.784;2023-09-30T05:56:06;63.83;;;60.20;;
3708;SDS011;1870;53.996;10.784;2023-09-30T05:58:33;67.13;;;62.27;;
3708;SDS011;1870;53.996;10.784;2023-09-30T06:00:58;61.30;;;57.67;;
3708;SDS011;1870;53.996;10.784;2023-09-30T06:03:25;59.33;;;55.90;;
3708;SDS011;1870;53.996;10.784;2023-09-30T06:05:54;58.77;;;55.73;;
3708;SDS011;1870;53.996;10.784;2023-09-30T06:08:21;57.90;;;54.20;;
3708;SDS011;1870;53.996;10.784;2023-09-30T06:10:46;54.73;;;51.43;;
3708;SDS011;1870;53.996;10.784;2023-09-30T06:13:12;53.30;;;49.70;;
3708;SDS011;1870;53.996;10.784;2023-09-30T06:15:41;53.60;;;50.20;;
3708;SDS011;1870;53.996;10.784;2023-09-30T06:18:08;51.73;;;48.20;;
3708;SDS011;1870;53.996;10.784;2023-09-30T06:20:35;49.77;;;46.73;;
3708;SDS011;1870;53.996;10.784;2023-09-30T06:23:01;45.67;;;42.50;;
3708;SDS011;1870;53.996;10.784;2023-09-30T06:25:26;47.23;;;44.50;;
3708;SDS011;1870;53.996;10.784;2023-09-30T06:27:53;47.23;;;43.80;;
3708;SDS011;1870;53.996;10.784;2023-09-30T06:30:23;47.03;;;44.40;;
3708;SDS011;1870;53.996;10.784;2023-09-30T06:32:54;41.27;;;38.50;;
3708;SDS011;1870;53.996;10.784;2023-09-30T06:35:21;38.57;;;36.27;;
3708;SDS011;1870;53.996;10.784;2023-09-30T06:37:47;44.13;;;40.53;;
3708;SDS011;1870;53.996;10.784;2023-09-30T06:40:12;41.60;;;38.53;;
3708;SDS011;1870;53.996;10.784;2023-09-30T06:42:39;40.23;;;37.50;;
3708;SDS011;1870;53.996;10.784;2023-09-30T06:45:05;41.93;;;39.80;;
3708;SDS011;1870;53.996;10.784;2023-09-30T06:47:35;42.80;;;40.03;;
3708;SDS011;1870;53.996;10.784;2023-09-30T06:50:02;44.87;;;41.87;;
3708;SDS011;1870;53.996;10.784;2023-09-30T06:52:33;43.20;;;40.03;;
3708;SDS011;1870;53.996;10.784;2023-09-30T06:55:00;41.83;;;39.03;;
3708;SDS011;1870;53.996;10.784;2023-09-30T06:57:26;45.77;;;42.43;;
3708;SDS011;1870;53.996;10.784;2023-09-30T06:59:54;43.17;;;40.20;;
3708;SDS011;1870;53.996;10.784;2023-09-30T07:02:20;44.80;;;41.60;;
3708;SDS011;1870;53.996;10.784;2023-09-30T07:04:46;45.10;;;42.00;;
3708;SDS011;1870;53.996;10.784;2023-09-30T07:07:11;43.13;;;40.40;;
3708;SDS011;1870;53.996;10.784;2023-09-30T07:09:37;37.00;;;34.30;;
3708;SDS011;1870;53.996;10.784;2023-09-30T07:12:02;35.30;;;32.37;;
3708;SDS011;1870;53.996;10.784;2023-09-30T07:14:29;37.23;;;34.33;;
3708;SDS011;1870;53.996;10.784;2023-09-30T07:16:56;33.33;;;30.77;;
3708;SDS011;1870;53.996;10.784;2023-09-30T07:19:22;31.73;;;28.73;;
3708;SDS011;1870;53.996;10.784;2023-09-30T07:21:48;27.80;;;25.33;;
3708;SDS011;1870;53.996;10.784;2023-09-30T07:24:14;27.03;;;24.40;;
3708;SDS011;1870;53.996;10.784;2023-09-30T07:26:40;26.70;;;24.13;;
3708;SDS011;1870;53.996;10.784;2023-09-30T07:29:06;22.40;;;21.10;;
3708;SDS011;1870;53.996;10.784;2023-09-30T07:31:35;20.30;;;18.47;;
3708;SDS011;1870;53.996;10.784;2023-09-30T07:34:01;20.93;;;19.20;;
3708;SDS011;1870;53.996;10.784;2023-09-30T07:36:27;16.93;;;15.17;;
3708;SDS011;1870;53.996;10.784;2023-09-30T07:38:53;15.23;;;13.67;;
3708;SDS011;1870;53.996;10.784;2023-09-30T07:41:19;21.43;;;14.93;;
3708;SDS011;1870;53.996;10.784;2023-09-30T07:43:45;19.13;;;16.50;;
3708;SDS011;1870;53.996;10.784;2023-09-30T07:46:10;24.43;;;15.73;;
3708;SDS011;1870;53.996;10.784;2023-09-30T07:48:36;20.73;;;14.30;;
3708;SDS011;1870;53.996;10.784;2023-09-30T07:51:02;17.70;;;13.20;;
3708;SDS011;1870;53.996;10.784;2023-09-30T07:53:27;23.87;;;14.80;;
3708;SDS011;1870;53.996;10.784;2023-09-30T07:55:54;19.67;;;14.50;;
3708;SDS011;1870;53.996;10.784;2023-09-30T07:58:20;18.60;;;13.50;;
3708;SDS011;1870;53.996;10.784;2023-09-30T08:00:45;15.07;;;13.63;;
3708;SDS011;1870;53.996;10.784;2023-09-30T08:03:11;20.47;;;13.73;;
3708;SDS011;1870;53.996;10.784;2023-09-30T08:05:37;15.10;;;12.50;;
3708;SDS011;1870;53.996;10.784;2023-09-30T08:08:03;16.47;;;12.50;;
3708;SDS011;1870;53.996;10.784;2023-09-30T08:10:31;18.93;;;12.93;;
3708;SDS011;1870;53.996;10.784;2023-09-30T08:12:57;15.07;;;11.50;;
3708;SDS011;1870;53.996;10.784;2023-09-30T08:15:24;16.40;;;11.57;;
3708;SDS011;1870;53.996;10.784;2023-09-30T08:17:50;19.37;;;12.07;;
3708;SDS011;1870;53.996;10.784;2023-09-30T08:20:15;18.50;;;10.77;;
3708;SDS011;1870;53.996;10.784;2023-09-30T08:22:41;27.23;;;9.83;;
3708;SDS011;1870;53.996;10.784;2023-09-30T08:25:07;14.93;;;10.03;;
3708;SDS011;1870;53.996;10.784;2023-09-30T08:27:33;11.70;;;8.30;;
3708;SDS011;1870;53.996;10.784;2023-09-30T08:29:59;10.27;;;8.80;;
3708;SDS011;1870;53.996;10.784;2023-09-30T08:32:31;16.73;;;7.63;;
3708;SDS011;1870;53.996;10.784;2023-09-30T08:34:57;11.97;;;8.10;;
3708;SDS011;1870;53.996;10.784;2023-09-30T08:37:23;18.03;;;7.83;;
3708;SDS011;1870;53.996;10.784;2023-09-30T08:39:49;12.97;;;7.80;;
3708;SDS011;1870;53.996;10.784;2023-09-30T08:42:15;21.37;;;7.50;;
3708;SDS011;1870;53.996;10.784;2023-09-30T08:44:43;12.10;;;7.00;;
3708;SDS011;1870;53.996;10.784;2023-09-30T08:47:09;10.77;;;7.17;;
3708;SDS011;1870;53.996;10.784;2023-09-30T08:49:37;13.60;;;6.90;;
3708;SDS011;1870;53.996;10.784;2023-09-30T08:52:06;12.63;;;7.33;;
3708;SDS011;1870;53.996;10.784;2023-09-30T08:54:34;14.83;;;6.63;;
3708;SDS011;1870;53.996;10.784;2023-09-30T08:57:01;9.63;;;5.60;;
3708;SDS011;1870;53.996;10.784;2023-09-30T08:59:31;12.90;;;5.67;;
3708;SDS011;1870;53.996;10.784;2023-09-30T09:02:00;12.47;;;6.17;;
3708;SDS011;1870;53.996;10.784;2023-09-30T09:04:25;9.03;;;5.07;;
3708;SDS011;1870;53.996;10.784;2023-09-30T09:06:53;10.40;;;5.50;;
3708;SDS011;1870;53.996;10.784;2023-09-30T09:09:20;15.87;;;7.40;;
3708;SDS011;1870;53.996;10.784;2023-09-30T09:11:47;12.40;;;6.07;;
3708;SDS011;1870;53.996;10.784;2023-09-30T09:14:14;8.63;;;5.50;;
3708;SDS011;1870;53.996;10.784;2023-09-30T09:16:50;13.80;;;5.40;;
3708;SDS011;1870;53.996;10.784;2023-09-30T09:19:17;10.53;;;5.67;;
3708;SDS011;1870;53.996;10.784;2023-09-30T09:21:56;18.53;;;5.80;;
3708;SDS011;1870;53.996;10.784;2023-09-30T09:24:26;10.07;;;5.07;;
3708;SDS011;1870;53.996;10.784;2023-09-30T09:27:09;10.87;;;4.80;;
3708;SDS011;1870;53.996;10.784;2023-09-30T09:29:37;9.43;;;4.20;;
3708;SDS011;1870;53.996;10.784;2023-09-30T09:32:07;13.37;;;5.50;;
3708;SDS011;1870;53.996;10.784;2023-09-30T09:34:34;11.17;;;5.20;;
3708;SDS011;1870;53.996;10.784;2023-09-30T09:37:00;15.30;;;5.67;;
3708;SDS011;1870;53.996;10.784;2023-09-30T09:39:38;12.73;;;3.80;;
3708;SDS011;1870;53.996;10.784;2023-09-30T09:42:04;17.30;;;5.70;;
3708;SDS011;1870;53.996;10.784;2023-09-30T09:44:31;10.50;;;3.40;;
3708;SDS011;1870;53.996;10.784;2023-09-30T09:47:01;10.23;;;3.83;;
3708;SDS011;1870;53.996;10.784;2023-09-30T09:49:31;10.47;;;4.03;;
3708;SDS011;1870;53.996;10.784;2023-09-30T09:51:57;10.97;;;5.10;;
3708;SDS011;1870;53.996;10.784;2023-09-30T09:54:25;10.33;;;4.50;;
3708;SDS011;1870;53.996;10.784;2023-09-30T09:56:52;11.03;;;3.50;;
3708;SDS011;1870;53.996;10.784;2023-09-30T09:59:22;16.50;;;5.17;;
3708;SDS011;1870;53.996;10.784;2023-09-30T10:01:48;14.10;;;4.03;;
3708;SDS011;1870;53.996;10.784;2023-09-30T10:04:14;12.33;;;4.40;;
3708;SDS011;1870;53.996;10.784;2023-09-30T10:06:40;10.53;;;4.63;;
3708;SDS011;1870;53.996;10.784;2023-09-30T10:09:10;10.93;;;4.87;;
3708;SDS011;1870;53.996;10.784;2023-09-30T10:11:38;9.83;;;4.83;;
3708;SDS011;1870;53.996;10.784;2023-09-30T10:14:05;12.93;;;4.50;;
3708;SDS011;1870;53.996;10.784;2023-09-30T10:19:12;7.73;;;4.43;;
3708;SDS011;1870;53.996;10.784;2023-09-30T10:21:39;14.10;;;4.17;;
3708;SDS011;1870;53.996;10.784;2023-09-30T10:35:19;14.93;;;3.83;;
3708;SDS011;1870;53.996;10.784;2023-09-30T10:37:51;5.60;;;3.97;;
3708;SDS011;1870;53.996;10.784;2023-09-30T10:40:46;10.43;;;4.07;;
3708;SDS011;1870;53.996;10.784;2023-09-30T10:45:56;10.23;;;3.40;;
3708;SDS011;1870;53.996;10.784;2023-09-30T10:53:17;12.47;;;3.53;;
3708;SDS011;1870;53.996;10.784;2023-09-30T10:55:46;8.50;;;3.20;;
3708;SDS011;1870;53.996;10.784;2023-09-30T10:58:27;9.13;;;3.10;;
3708;SDS011;1870;53.996;10.784;2023-09-30T11:01:04;12.23;;;3.97;;
3708;SDS011;1870;53.996;10.784;2023-09-30T11:03:30;14.30;;;5.10;;
3708;SDS011;1870;53.996;10.784;2023-09-30T11:05:55;11.50;;;3.90;;
3708;SDS011;1870;53.996;10.784;2023-09-30T11:08:23;7.27;;;3.27;;
3708;SDS011;1870;53.996;10.784;2023-09-30T11:10:50;8.27;;;4.30;;
3708;SDS011;1870;53.996;10.784;2023-09-30T11:13:20;9.40;;;4.00;;
3708;SDS011;1870;53.996;10.784;2023-09-30T11:15:46;15.50;;;3.70;;
3708;SDS011;1870;53.996;10.784;2023-09-30T11:18:15;7.77;;;3.20;;
3708;SDS011;1870;53.996;10.784;2023-09-30T11:20:43;7.47;;;3.20;;
3708;SDS011;1870;53.996;10.784;2023-09-30T11:23:09;7.17;;;3.43;;
3708;SDS011;1870;53.996;10.784;2023-09-30T11:25:36;14.20;;;4.03;;
3708;SDS011;1870;53.996;10.784;2023-09-30T11:28:15;8.87;;;2.67;;
3708;SDS011;1870;53.996;10.784;2023-09-30T11:30:58;11.63;;;3.40;;
3708;SDS011;1870;53.996;10.784;2023-09-30T11:33:25;8.60;;;4.10;;
3708;SDS011;1870;53.996;10.784;2023-09-30T11:35:58;17.57;;;3.43;;
3708;SDS011;1870;53.996;10.784;2023-09-30T11:38:31;15.37;;;4.23;;
3708;SDS011;1870;53.996;10.784;2023-09-30T11:41:05;13.60;;;3.37;;
3708;SDS011;1870;53.996;10.784;2023-09-30T11:43:32;11.20;;;3.80;;
3708;SDS011;1870;53.996;10.784;2023-09-30T11:46:09;10.57;;;3.90;;
3708;SDS011;1870;53.996;10.784;2023-09-30T11:48:40;11.57;;;3.60;;
3708;SDS011;1870;53.996;10.784;2023-09-30T11:51:26;9.90;;;3.53;;
3708;SDS011;1870;53.996;10.784;2023-09-30T11:53:53;8.10;;;3.43;;
3708;SDS011;1870;53.996;10.784;2023-09-30T11:56:19;5.53;;;3.23;;
3708;SDS011;1870;53.996;10.784;2023-09-30T11:58:47;10.53;;;3.10;;
3708;SDS011;1870;53.996;10.784;2023-09-30T12:01:14;8.10;;;3.30;;
3708;SDS011;1870;53.996;10.784;2023-09-30T12:03:41;11.93;;;4.10;;
3708;SDS011;1870;53.996;10.784;2023-09-30T12:06:08;6.73;;;2.67;;
3708;SDS011;1870;53.996;10.784;2023-09-30T12:08:38;8.90;;;3.43;;
3708;SDS011;1870;53.996;10.784;2023-09-30T12:11:06;11.53;;;3.27;;
3708;SDS011;1870;53.996;10.784;2023-09-30T12:13:31;10.83;;;3.23;;
3708;SDS011;1870;53.996;10.784;2023-09-30T12:15:57;6.53;;;3.80;;
3708;SDS011;1870;53.996;10.784;2023-09-30T12:18:23;9.67;;;3.50;;
3708;SDS011;1870;53.996;10.784;2023-09-30T12:20:52;6.87;;;3.43;;
3708;SDS011;1870;53.996;10.784;2023-09-30T12:23:18;6.07;;;2.93;;
3708;SDS011;1870;53.996;10.784;2023-09-30T12:25:45;11.87;;;3.90;;
3708;SDS011;1870;53.996;10.784;2023-09-30T12:28:12;8.20;;;3.63;;
3708;SDS011;1870;53.996;10.784;2023-09-30T12:30:39;15.03;;;4.10;;
3708;SDS011;1870;53.996;10.784;2023-09-30T12:33:05;7.60;;;3.00;;
3708;SDS011;1870;53.996;10.784;2023-09-30T12:35:32;11.63;;;3.63;;
3708;SDS011;1870;53.996;10.784;2023-09-30T12:37:58;10.30;;;2.90;;
3708;SDS011;1870;53.996;10.784;2023-09-30T12:40:24;9.77;;;3.50;;
3708;SDS011;1870;53.996;10.784;2023-09-30T12:42:50;12.63;;;2.87;;
3708;SDS011;1870;53.996;10.784;2023-09-30T12:45:15;9.40;;;3.70;;
3708;SDS011;1870;53.996;10.784;2023-09-30T12:47:42;6.90;;;3.03;;
3708;SDS011;1870;53.996;10.784;2023-09-30T12:50:08;8.13;;;2.60;;
3708;SDS011;1870;53.996;10.784;2023-09-30T12:52:34;5.43;;;3.10;;
3708;SDS011;1870;53.996;10.784;2023-09-30T12:55:00;8.50;;;3.00;;
3708;SDS011;1870;53.996;10.784;2023-09-30T12:57:26;10.90;;;3.40;;
3708;SDS011;1870;53.996;10.784;2023-09-30T12:59:51;6.93;;;3.07;;
3708;SDS011;1870;53.996;10.784;2023-09-30T13:02:18;6.00;;;3.27;;
3708;SDS011;1870;53.996;10.784;2023-09-30T13:04:44;11.37;;;4.63;;
3708;SDS011;1870;53.996;10.784;2023-09-30T13:07:10;5.80;;;2.80;;
3708;SDS011;1870;53.996;10.784;2023-09-30T13:09:37;12.20;;;3.23;;
3708;SDS011;1870;53.996;10.784;2023-09-30T13:12:05;6.37;;;2.70;;
3708;SDS011;1870;53.996;10.784;2023-09-30T13:14:31;7.30;;;2.93;;
3708;SDS011;1870;53.996;10.784;2023-09-30T13:16:57;5.77;;;3.23;;
3708;SDS011;1870;53.996;10.784;2023-09-30T13:19:23;9.50;;;4.43;;
3708;SDS011;1870;53.996;10.784;2023-09-30T13:21:49;5.87;;;2.70;;
3708;SDS011;1870;53.996;10.784;2023-09-30T13:24:16;5.00;;;2.90;;
3708;SDS011;1870;53.996;10.784;2023-09-30T13:26:42;3.80;;;2.40;;
3708;SDS011;1870;53.996;10.784;2023-09-30T13:29:08;11.83;;;3.60;;
3708;SDS011;1870;53.996;10.784;2023-09-30T13:31:37;10.43;;;2.70;;
3708;SDS011;1870;53.996;10.784;2023-09-30T13:34:03;6.77;;;2.73;;
3708;SDS011;1870;53.996;10.784;2023-09-30T13:36:31;6.83;;;2.80;;
3708;SDS011;1870;53.996;10.784;2023-09-30T13:38:57;4.87;;;2.13;;
3708;SDS011;1870;53.996;10.784;2023-09-30T13:41:24;8.73;;;3.00;;
3708;SDS011;1870;53.996;10.784;2023-09-30T13:43:49;4.77;;;2.53;;
3708;SDS011;1870;53.996;10.784;2023-09-30T13:46:15;8.10;;;2.80;;
3708;SDS011;1870;53.996;10.784;2023-09-30T13:48:42;7.50;;;2.67;;
3708;SDS011;1870;53.996;10.784;2023-09-30T13:51:09;6.13;;;2.77;;
3708;SDS011;1870;53.996;10.784;2023-09-30T13:53:37;8.77;;;2.83;;
3708;SDS011;1870;53.996;10.784;2023-09-30T13:56:02;10.40;;;2.90;;
3708;SDS011;1870;53.996;10.784;2023-09-30T13:58:29;11.17;;;3.83;;
3708;SDS011;1870;53.996;10.784;2023-09-30T14:00:56;6.13;;;3.17;;
3708;SDS011;1870;53.996;10.784;2023-09-30T14:03:22;11.83;;;3.33;;
3708;SDS011;1870;53.996;10.784;2023-09-30T14:05:49;13.87;;;3.30;;
3708;SDS011;1870;53.996;10.784;2023-09-30T14:08:15;4.67;;;2.70;;
3708;SDS011;1870;53.996;10.784;2023-09-30T14:10:41;17.43;;;3.57;;
3708;SDS011;1870;53.996;10.784;2023-09-30T14:13:09;5.23;;;2.73;;
3708;SDS011;1870;53.996;10.784;2023-09-30T14:15:36;7.03;;;2.77;;
3708;SDS011;1870;53.996;10.784;2023-09-30T14:18:02;8.33;;;2.50;;
3708;SDS011;1870;53.996;10.784;2023-09-30T14:20:29;4.20;;;1.90;;
3708;SDS011;1870;53.996;10.784;2023-09-30T14:22:55;5.60;;;2.33;;
3708;SDS011;1870;53.996;10.784;2023-09-30T14:25:21;5.93;;;2.47;;
3708;SDS011;1870;53.996;10.784;2023-09-30T14:27:47;7.33;;;3.07;;
3708;SDS011;1870;53.996;10.784;2023-09-30T14:30:14;3.23;;;2.67;;
3708;SDS011;1870;53.996;10.784;2023-09-30T14:32:40;7.53;;;2.93;;
3708;SDS011;1870;53.996;10.784;2023-09-30T14:35:06;6.23;;;2.60;;
3708;SDS011;1870;53.996;10.784;2023-09-30T14:37:34;5.27;;;2.70;;
3708;SDS011;1870;53.996;10.784;2023-09-30T14:40:02;10.10;;;3.30;;
3708;SDS011;1870;53.996;10.784;2023-09-30T14:42:36;7.77;;;2.90;;
3708;SDS011;1870;53.996;10.784;2023-09-30T14:45:02;6.07;;;2.90;;
3708;SDS011;1870;53.996;10.784;2023-09-30T14:47:28;6.33;;;2.43;;
3708;SDS011;1870;53.996;10.784;2023-09-30T14:49:54;7.57;;;2.37;;
3708;SDS011;1870;53.996;10.784;2023-09-30T14:52:20;5.87;;;2.03;;
3708;SDS011;1870;53.996;10.784;2023-09-30T14:54:45;6.50;;;2.13;;
3708;SDS011;1870;53.996;10.784;2023-09-30T14:57:11;8.47;;;3.00;;
3708;SDS011;1870;53.996;10.784;2023-09-30T14:59:40;5.27;;;2.20;;
3708;SDS011;1870;53.996;10.784;2023-09-30T15:02:06;2.60;;;2.10;;
3708;SDS011;1870;53.996;10.784;2023-09-30T15:04:33;6.87;;;2.90;;
3708;SDS011;1870;53.996;10.784;2023-09-30T15:07:01;5.07;;;2.40;;